createdAt,value
2023-10-03T00:01:11.812Z,25.73
2023-10-03T00:03:39.283Z,25.57
2023-10-03T00:06:06.878Z,23.07
2023-10-03T00:08:33.711Z,25.77
2023-10-03T00:11:00.682Z,21.40
2023-10-03T00:13:27.317Z,27.13
2023-10-03T00:15:54.006Z,24.57
2023-10-03T00:18:20.805Z,24.70
2023-10-03T00:20:48.811Z,28.20
2023-10-03T00:23:15.772Z,30.60
2023-10-03T00:25:42.661Z,24.57
2023-10-03T00:28:09.484Z,25.17
2023-10-03T00:30:37.790Z,25.63
2023-10-03T00:33:06.683Z,26.80
2023-10-03T00:35:33.954Z,24.93
2023-10-03T00:38:01.693Z,23.17
2023-10-03T00:40:33.106Z,25.03
2023-10-03T00:43:02.058Z,25.50
2023-10-03T00:45:33.556Z,23.63
2023-10-03T00:48:02.443Z,24.13
2023-10-03T00:50:33.097Z,25.43
2023-10-03T00:53:09.771Z,27.70
2023-10-03T00:55:41.030Z,24.70
2023-10-03T00:58:19.304Z,26.67
2023-10-03T01:00:47.159Z,26.23
2023-10-03T01:03:30.401Z,24.53
2023-10-03T01:06:06.191Z,24.07
2023-10-03T01:08:37.639Z,25.33
2023-10-03T01:11:06.243Z,25.30
2023-10-03T01:13:32.949Z,27.90
2023-10-03T01:15:59.639Z,26.03
2023-10-03T01:18:28.888Z,25.87
2023-10-03T01:21:02.132Z,24.07
2023-10-03T01:23:38.073Z,30.13
2023-10-03T01:26:06.032Z,24.63
2023-10-03T01:28:32.690Z,25.43
2023-10-03T01:30:59.362Z,26.63
2023-10-03T01:33:29.880Z,26.20
2023-10-03T01:35:57.498Z,26.50
2023-10-03T01:38:24.345Z,26.43
2023-10-03T01:40:53.247Z,24.77
2023-10-03T01:43:20.599Z,24.37
2023-10-03T01:45:47.290Z,21.97
2023-10-03T01:48:14.166Z,23.67
2023-10-03T01:50:40.945Z,23.87
2023-10-03T01:53:07.855Z,23.73
2023-10-03T01:55:35.214Z,26.53
2023-10-03T01:58:02.081Z,30.53
2023-10-03T02:00:29.534Z,25.03
2023-10-03T02:03:06.817Z,23.73
2023-10-03T02:05:35.938Z,22.97
2023-10-03T02:08:08.979Z,24.93
2023-10-03T02:10:36.491Z,26.20
2023-10-03T02:13:13.511Z,24.67
2023-10-03T02:15:40.600Z,23.90
2023-10-03T02:18:10.227Z,24.03
2023-10-03T02:20:49.103Z,22.07
2023-10-03T02:23:20.812Z,22.47
2023-10-03T02:25:49.515Z,22.90
2023-10-03T02:28:17.838Z,22.43
2023-10-03T02:30:49.963Z,24.03
2023-10-03T02:33:18.264Z,27.53
2023-10-03T02:35:51.218Z,23.83
2023-10-03T02:38:25.692Z,23.67
2023-10-03T02:40:56.101Z,24.37
2023-10-03T02:43:23.085Z,22.30
2023-10-03T02:45:49.830Z,22.60
2023-10-03T02:48:17.192Z,23.13
2023-10-03T02:50:48.719Z,24.57
2023-10-03T02:53:22.115Z,22.13
2023-10-03T02:55:50.052Z,24.67
2023-10-03T02:58:21.130Z,21.10
2023-10-03T03:00:59.180Z,24.93
2023-10-03T03:03:34.874Z,25.23
2023-10-03T03:06:12.586Z,27.00
2023-10-03T03:08:41.807Z,25.67
2023-10-03T03:11:10.501Z,24.87
2023-10-03T03:13:38.226Z,21.63
2023-10-03T03:16:05.946Z,21.57
2023-10-03T03:18:48.945Z,23.47
2023-10-03T03:21:17.935Z,23.93
2023-10-03T03:23:57.173Z,23.47
2023-10-03T03:26:30.780Z,25.20
2023-10-03T03:28:57.741Z,24.23
2023-10-03T03:31:27.332Z,23.23
2023-10-03T03:33:59.103Z,22.87
2023-10-03T03:36:37.035Z,21.13
2023-10-03T03:39:07.694Z,24.23
2023-10-03T03:41:35.988Z,24.73
2023-10-03T03:44:03.092Z,24.37
2023-10-03T03:46:31.242Z,23.57
2023-10-03T03:49:00.149Z,20.57
2023-10-03T03:51:27.236Z,27.23
2023-10-03T03:53:54.402Z,24.47
2023-10-03T03:56:21.340Z,20.50
2023-10-03T03:58:50.030Z,23.87
2023-10-03T04:01:21.379Z,21.97
2023-10-03T04:03:51.741Z,21.27
2023-10-03T04:06:21.776Z,23.50
2023-10-03T04:09:06.226Z,25.17
2023-10-03T04:11:34.334Z,24.20
2023-10-03T04:14:02.429Z,24.20
2023-10-03T04:16:29.785Z,24.73
2023-10-03T04:18:56.982Z,21.17
2023-10-03T04:21:28.087Z,26.27
2023-10-03T04:23:55.770Z,22.83
2023-10-03T04:26:22.455Z,24.97
2023-10-03T04:28:49.025Z,21.23
2023-10-03T04:31:15.744Z,27.67
2023-10-03T04:33:45.119Z,23.07
2023-10-03T04:36:12.977Z,19.43
2023-10-03T04:38:41.895Z,21.10
2023-10-03T04:41:10.491Z,20.93
2023-10-03T04:43:37.776Z,21.47
2023-10-03T04:46:05.996Z,18.60
2023-10-03T04:48:33.250Z,25.53
2023-10-03T04:51:00.905Z,24.87
2023-10-03T04:53:27.975Z,28.73
2023-10-03T04:55:54.713Z,26.67
2023-10-03T04:58:23.606Z,25.10
2023-10-03T05:00:50.934Z,27.03
2023-10-03T05:03:21.060Z,21.73
2023-10-03T05:05:51.262Z,20.47
2023-10-03T05:08:20.130Z,20.47
2023-10-03T05:10:48.416Z,22.30
2023-10-03T05:13:15.571Z,18.07
2023-10-03T05:15:42.405Z,16.93
2023-10-03T05:18:09.208Z,17.13
2023-10-03T05:20:39.581Z,19.47
2023-10-03T05:23:07.259Z,17.87
2023-10-03T05:25:44.407Z,18.17
2023-10-03T05:28:15.075Z,19.90
2023-10-03T05:30:42.229Z,17.80
2023-10-03T05:33:09.774Z,19.80
2023-10-03T05:35:37.335Z,18.63
2023-10-03T05:38:10.782Z,17.53
2023-10-03T05:40:38.209Z,17.43
2023-10-03T05:43:06.427Z,17.33
2023-10-03T05:45:36.594Z,16.03
2023-10-03T05:48:05.290Z,18.20
2023-10-03T05:50:34.361Z,17.77
2023-10-03T05:53:01.826Z,17.73
2023-10-03T05:55:28.479Z,19.10
2023-10-03T05:57:55.349Z,16.93
2023-10-03T06:00:22.746Z,14.17
2023-10-03T06:02:49.872Z,17.47
2023-10-03T06:05:17.094Z,12.70
2023-10-03T06:07:46.695Z,15.63
2023-10-03T06:10:17.787Z,14.23
2023-10-03T06:12:45.288Z,13.67
2023-10-03T06:15:14.626Z,15.90
2023-10-03T06:17:42.061Z,17.47
2023-10-03T06:20:11.467Z,15.17
2023-10-03T06:22:40.561Z,17.93
2023-10-03T06:25:08.757Z,18.77
2023-10-03T06:27:35.426Z,15.43
2023-10-03T06:30:02.503Z,12.40
2023-10-03T06:32:29.314Z,14.17
2023-10-03T06:34:55.956Z,17.07
2023-10-03T06:37:25.161Z,16.33
2023-10-03T06:39:51.983Z,12.83
2023-10-03T06:42:20.040Z,15.37
2023-10-03T06:44:46.942Z,15.03
2023-10-03T06:47:14.219Z,14.67
2023-10-03T06:49:40.915Z,13.73
2023-10-03T06:52:07.602Z,17.10
2023-10-03T06:54:34.190Z,13.43
2023-10-03T06:57:00.920Z,12.43
2023-10-03T06:59:27.639Z,12.23
2023-10-03T07:01:54.295Z,14.23
2023-10-03T07:04:21.707Z,11.43
2023-10-03T07:06:51.983Z,11.47
2023-10-03T07:09:20.252Z,14.53
2023-10-03T07:11:50.455Z,13.40
2023-10-03T07:14:17.911Z,12.87
2023-10-03T07:16:48.176Z,8.60
2023-10-03T07:19:17.912Z,6.37
2023-10-03T07:21:44.617Z,10.43
2023-10-03T07:24:11.322Z,9.70
2023-10-03T07:26:38.137Z,7.03
2023-10-03T07:29:06.059Z,7.97
2023-10-03T07:31:36.128Z,7.23
2023-10-03T07:34:02.967Z,7.70
2023-10-03T07:36:29.795Z,7.43
2023-10-03T07:38:56.490Z,8.73
2023-10-03T07:41:23.699Z,8.77
2023-10-03T07:43:53.661Z,7.97
2023-10-03T07:46:22.286Z,10.53
2023-10-03T07:48:54.236Z,9.83
2023-10-03T07:51:31.252Z,9.50
2023-10-03T07:53:58.356Z,9.27
2023-10-03T07:56:32.030Z,6.60
2023-10-03T07:59:03.829Z,8.47
2023-10-03T08:01:44.843Z,8.47
2023-10-03T08:04:19.282Z,8.37
2023-10-03T08:06:46.018Z,21.60
2023-10-03T08:09:12.681Z,11.50
2023-10-03T08:11:39.438Z,8.43
2023-10-03T08:14:19.166Z,10.03
2023-10-03T08:16:47.369Z,9.97
2023-10-03T08:19:26.364Z,6.47
2023-10-03T08:21:54.656Z,10.80
2023-10-03T08:24:30.066Z,8.37
2023-10-03T08:27:01.171Z,9.83
2023-10-03T08:29:29.008Z,9.43
2023-10-03T08:32:01.218Z,11.50
2023-10-03T08:34:31.829Z,10.33
2023-10-03T08:37:03.010Z,7.07
2023-10-03T08:39:33.860Z,7.93
2023-10-03T08:42:28.616Z,8.10
2023-10-03T08:44:59.863Z,12.57
2023-10-03T08:47:35.534Z,9.90
2023-10-03T08:50:16.002Z,9.87
2023-10-03T08:52:51.479Z,7.80
2023-10-03T08:55:22.650Z,9.57
2023-10-03T08:57:52.304Z,8.40
2023-10-03T09:00:26.880Z,6.77
2023-10-03T09:03:11.219Z,9.97
2023-10-03T09:05:41.640Z,7.50
2023-10-03T09:08:13.538Z,7.27
2023-10-03T09:10:53.397Z,10.53
2023-10-03T09:13:25.030Z,8.23
2023-10-03T09:16:02.740Z,7.47
2023-10-03T09:18:42.406Z,7.07
2023-10-03T09:21:17.351Z,12.37
2023-10-03T09:24:16.500Z,9.17
2023-10-03T09:26:49.487Z,9.20
2023-10-03T09:29:31.832Z,9.93
2023-10-03T09:32:14.992Z,8.03
2023-10-03T09:34:43.707Z,9.53
2023-10-03T09:37:11.858Z,8.80
2023-10-03T09:39:52.799Z,7.10
2023-10-03T09:42:25.112Z,8.17
2023-10-03T09:44:53.247Z,11.70
2023-10-03T09:47:20.375Z,11.53
2023-10-03T09:49:50.337Z,11.03
2023-10-03T09:52:27.708Z,22.93
2023-10-03T09:55:00.038Z,17.57
2023-10-03T09:57:31.317Z,13.77
2023-10-03T09:59:59.434Z,8.93
2023-10-03T10:02:47.519Z,7.50
2023-10-03T10:05:23.609Z,8.57
2023-10-03T10:08:22.073Z,8.30
2023-10-03T10:11:10.808Z,11.30
2023-10-03T10:13:44.191Z,8.10
2023-10-03T10:16:12.468Z,8.40
2023-10-03T10:18:45.631Z,10.07
2023-10-03T10:21:21.559Z,7.93
2023-10-03T10:24:17.014Z,9.87
2023-10-03T10:26:50.499Z,10.67
2023-10-03T10:29:25.834Z,8.07
2023-10-03T10:31:59.774Z,9.30
2023-10-03T10:34:31.012Z,8.20
2023-10-03T10:37:16.502Z,9.97
2023-10-03T10:40:18.899Z,8.37
2023-10-03T10:43:00.666Z,13.47
2023-10-03T10:45:29.154Z,10.20
2023-10-03T10:47:57.255Z,9.40
2023-10-03T10:50:30.012Z,10.33
2023-10-03T10:52:58.961Z,9.27
2023-10-03T10:55:26.957Z,9.40
2023-10-03T10:58:09.061Z,4.63
2023-10-03T11:00:36.365Z,9.20
2023-10-03T11:03:04.478Z,4.77
2023-10-03T11:05:48.572Z,3.37
2023-10-03T11:08:16.371Z,3.80
2023-10-03T11:10:54.105Z,1.93
2023-10-03T11:13:25.286Z,3.00
2023-10-03T11:15:53.321Z,4.13
2023-10-03T11:18:33.822Z,2.87
2023-10-03T11:21:05.163Z,7.03
2023-10-03T11:23:32.473Z,5.23
2023-10-03T11:26:01.270Z,2.70
2023-10-03T11:28:31.117Z,3.30
2023-10-03T11:31:05.825Z,1.60
2023-10-03T11:33:43.085Z,2.23
2023-10-03T11:36:10.041Z,3.77
2023-10-03T11:38:52.480Z,2.70
2023-10-03T11:41:32.454Z,4.07
2023-10-03T11:43:59.165Z,1.83
2023-10-03T11:46:26.667Z,4.70
2023-10-03T11:49:00.848Z,3.40
2023-10-03T11:51:27.648Z,3.30
2023-10-03T11:53:54.540Z,4.93
2023-10-03T11:56:21.651Z,5.23
2023-10-03T11:58:48.376Z,6.80
2023-10-03T12:01:15.104Z,4.57
2023-10-03T12:03:41.961Z,5.20
2023-10-03T12:06:09.688Z,2.10
2023-10-03T12:08:42.447Z,4.10
2023-10-03T12:11:11.889Z,2.47
2023-10-03T12:13:38.999Z,1.70
2023-10-03T12:16:06.136Z,3.43
2023-10-03T12:18:33.312Z,2.03
2023-10-03T12:21:00.439Z,3.37
2023-10-03T12:23:27.420Z,2.50
2023-10-03T12:25:54.554Z,2.57
2023-10-03T12:28:23.213Z,2.33
2023-10-03T12:30:52.416Z,3.83
2023-10-03T12:33:20.865Z,4.10
2023-10-03T12:35:47.966Z,2.07
2023-10-03T12:38:17.244Z,11.10
2023-10-03T12:40:48.614Z,13.30
2023-10-03T12:43:15.324Z,16.93
2023-10-03T12:45:43.762Z,13.83
2023-10-03T12:48:11.564Z,20.47
2023-10-03T12:50:38.419Z,15.40
2023-10-03T12:53:06.077Z,8.07
2023-10-03T12:55:34.919Z,8.53
2023-10-03T12:58:04.823Z,10.00
2023-10-03T13:00:31.494Z,7.93
2023-10-03T13:03:01.276Z,3.83
2023-10-03T13:05:28.288Z,3.37
2023-10-03T13:07:55.033Z,10.50
2023-10-03T13:10:24.451Z,4.97
2023-10-03T13:12:55.857Z,9.23
2023-10-03T13:15:23.351Z,13.07
2023-10-03T13:17:53.450Z,10.43
2023-10-03T13:20:20.735Z,11.03
2023-10-03T13:22:48.853Z,14.17
2023-10-03T13:25:24.007Z,7.20
2023-10-03T13:27:51.922Z,4.00
2023-10-03T13:30:26.694Z,3.20
2023-10-03T13:32:56.967Z,3.07
2023-10-03T13:35:24.612Z,3.47
2023-10-03T13:37:52.367Z,3.83
2023-10-03T13:40:19.357Z,1.83
2023-10-03T13:42:49.310Z,3.77
2023-10-03T13:45:17.205Z,2.97
2023-10-03T13:47:46.685Z,4.07
2023-10-03T13:50:14.679Z,2.07
2023-10-03T13:52:44.173Z,3.30
2023-10-03T13:55:12.348Z,3.27
2023-10-03T13:57:41.635Z,3.93
2023-10-03T14:00:14.324Z,2.67
2023-10-03T14:02:46.364Z,2.30
2023-10-03T14:05:13.850Z,1.83
2023-10-03T14:07:40.575Z,4.10
2023-10-03T14:10:08.227Z,2.40
2023-10-03T14:12:35.248Z,2.53
2023-10-03T14:15:03.021Z,1.90
2023-10-03T14:17:30.140Z,3.63
2023-10-03T14:19:57.067Z,2.40
2023-10-03T14:22:23.742Z,2.60
2023-10-03T14:24:50.514Z,3.17
2023-10-03T14:27:17.284Z,2.70
2023-10-03T14:29:44.644Z,3.60
2023-10-03T14:32:12.326Z,1.90
2023-10-03T14:34:42.418Z,1.80
2023-10-03T14:37:10.792Z,1.80
2023-10-03T14:39:37.608Z,2.77
2023-10-03T14:42:04.537Z,2.17
2023-10-03T14:44:31.271Z,2.70
2023-10-03T14:46:58.944Z,2.63
2023-10-03T14:49:26.246Z,3.63
2023-10-03T14:51:53.869Z,2.30
2023-10-03T14:54:20.643Z,2.40
2023-10-03T14:56:52.104Z,2.83
2023-10-03T14:59:23.293Z,1.83
2023-10-03T15:01:50.217Z,3.03
2023-10-03T15:04:19.037Z,2.13
2023-10-03T15:06:45.859Z,2.73
2023-10-03T15:09:13.052Z,2.77
2023-10-03T15:11:40.255Z,3.33
2023-10-03T15:14:07.351Z,3.33
2023-10-03T15:16:34.550Z,3.63
2023-10-03T15:19:04.452Z,3.23
2023-10-03T15:21:31.445Z,3.70
2023-10-03T15:23:58.797Z,3.37
2023-10-03T15:26:25.505Z,3.23
2023-10-03T15:28:53.416Z,4.30
2023-10-03T15:31:24.809Z,3.40
2023-10-03T15:33:53.844Z,5.57
2023-10-03T15:36:21.415Z,3.47
2023-10-03T15:38:48.435Z,5.43
2023-10-03T15:41:17.977Z,3.87
2023-10-03T15:43:44.815Z,6.23
2023-10-03T15:46:11.925Z,4.30
2023-10-03T15:48:39.371Z,4.07
2023-10-03T15:51:14.936Z,6.10
2023-10-03T15:53:44.648Z,5.33
2023-10-03T15:56:14.485Z,3.50
2023-10-03T15:58:42.667Z,6.77
2023-10-03T16:01:16.791Z,3.83
2023-10-03T16:03:46.337Z,4.07
2023-10-03T16:06:13.916Z,7.07
2023-10-03T16:08:44.300Z,6.57
2023-10-03T16:11:12.880Z,5.97
2023-10-03T16:13:39.993Z,6.53
2023-10-03T16:16:06.673Z,8.73
2023-10-03T16:18:34.277Z,7.57
2023-10-03T16:21:05.896Z,7.73
2023-10-03T16:23:33.734Z,10.27
2023-10-03T16:26:00.913Z,7.23
2023-10-03T16:28:27.571Z,7.80
2023-10-03T16:30:54.261Z,7.67
2023-10-03T16:33:22.263Z,8.50
2023-10-03T16:35:49.501Z,5.33
2023-10-03T16:38:16.329Z,5.93
2023-10-03T16:40:42.937Z,4.63
2023-10-03T16:43:09.869Z,7.03
2023-10-03T16:45:37.924Z,6.13
2023-10-03T16:48:09.278Z,9.07
2023-10-03T16:50:39.592Z,5.50
2023-10-03T16:53:07.441Z,7.53
2023-10-03T16:55:34.436Z,8.20
2023-10-03T16:58:04.017Z,4.20
2023-10-03T17:00:31.491Z,6.20
2023-10-03T17:02:58.537Z,7.47
2023-10-03T17:05:25.353Z,7.53
2023-10-03T17:07:52.128Z,7.40
2023-10-03T17:10:20.191Z,9.90
2023-10-03T17:12:47.360Z,9.43
2023-10-03T17:15:15.543Z,11.73
2023-10-03T17:17:42.813Z,13.90
2023-10-03T17:20:12.608Z,12.27
2023-10-03T17:22:40.433Z,14.53
2023-10-03T17:25:07.883Z,16.00
2023-10-03T17:27:35.975Z,18.40
2023-10-03T17:30:07.776Z,16.83
2023-10-03T17:32:34.556Z,15.23
2023-10-03T17:35:01.805Z,12.43
2023-10-03T17:37:28.888Z,13.87
2023-10-03T17:39:56.370Z,11.03
2023-10-03T17:42:23.391Z,8.97
2023-10-03T17:44:50.980Z,8.77
2023-10-03T17:47:19.246Z,7.90
2023-10-03T17:49:45.908Z,6.50
2023-10-03T17:52:16.644Z,10.00
2023-10-03T17:54:44.606Z,9.20
2023-10-03T17:57:11.978Z,9.27
2023-10-03T17:59:38.825Z,16.10
2023-10-03T18:02:05.668Z,14.80
2023-10-03T18:04:34.004Z,12.53
2023-10-03T18:07:00.789Z,8.50
2023-10-03T18:09:28.597Z,6.40
2023-10-03T18:11:56.538Z,6.33
2023-10-03T18:14:24.032Z,6.30
2023-10-03T18:16:50.773Z,8.20
2023-10-03T18:19:17.784Z,8.43
2023-10-03T18:21:45.362Z,6.17
2023-10-03T18:24:12.433Z,7.43
2023-10-03T18:26:39.385Z,8.07
2023-10-03T18:29:06.022Z,7.73
2023-10-03T18:31:33.875Z,9.07
2023-10-03T18:34:00.845Z,10.47
2023-10-03T18:36:29.736Z,8.30
2023-10-03T18:38:56.552Z,9.83
2023-10-03T18:41:23.408Z,8.67
2023-10-03T18:43:50.696Z,8.77
2023-10-03T18:46:17.436Z,7.20
2023-10-03T18:48:44.848Z,7.30
2023-10-03T18:51:11.973Z,6.37
2023-10-03T18:53:40.290Z,5.90
2023-10-03T18:56:11.322Z,6.37
2023-10-03T18:58:38.484Z,10.47
2023-10-03T19:01:46.024Z,6.73
2023-10-03T19:04:16.059Z,7.23
2023-10-03T19:06:43.055Z,7.07
2023-10-03T19:09:13.808Z,6.50
2023-10-03T19:11:41.171Z,11.40
2023-10-03T19:14:07.814Z,13.27
2023-10-03T19:16:35.456Z,11.33
2023-10-03T19:19:02.417Z,9.50
2023-10-03T19:21:29.701Z,7.73
2023-10-03T19:23:58.423Z,6.43
2023-10-03T19:26:25.406Z,6.63
2023-10-03T19:28:52.100Z,6.47
2023-10-03T19:31:20.220Z,5.17
2023-10-03T19:33:47.660Z,7.13
2023-10-03T19:36:15.366Z,6.87
2023-10-03T19:38:42.513Z,6.10
2023-10-03T19:41:13.816Z,10.67
2023-10-03T19:43:41.961Z,5.43
2023-10-03T19:46:15.085Z,6.93
2023-10-03T19:48:42.266Z,4.97
2023-10-03T19:51:09.349Z,5.97
2023-10-03T19:53:36.140Z,6.70
2023-10-03T19:56:10.516Z,4.90
2023-10-03T19:58:39.505Z,8.20
2023-10-03T20:01:09.280Z,8.83
2023-10-03T20:03:36.770Z,6.93
2023-10-03T20:06:04.323Z,7.30
2023-10-03T20:08:31.130Z,6.77
2023-10-03T20:10:57.871Z,4.87
2023-10-03T20:13:24.728Z,8.33
2023-10-03T20:15:51.809Z,6.83
2023-10-03T20:18:18.668Z,4.93
2023-10-03T20:20:45.726Z,9.60
2023-10-03T20:23:12.636Z,5.17
2023-10-03T20:25:41.204Z,5.03
2023-10-03T20:28:08.275Z,5.03
2023-10-03T20:30:35.089Z,4.70
2023-10-03T20:33:02.659Z,6.20
2023-10-03T20:35:29.791Z,4.90
2023-10-03T20:37:56.502Z,6.60
2023-10-03T20:40:23.247Z,5.77
2023-10-03T20:42:50.158Z,5.27
2023-10-03T20:45:16.940Z,7.23
2023-10-03T20:47:44.325Z,6.27
2023-10-03T20:50:11.883Z,7.07
2023-10-03T20:52:41.661Z,6.43
2023-10-03T20:55:08.457Z,4.80
2023-10-03T20:57:36.749Z,4.63
2023-10-03T21:00:04.724Z,6.67
2023-10-03T21:02:31.463Z,6.83
2023-10-03T21:04:58.912Z,5.10
2023-10-03T21:07:25.893Z,6.03
2023-10-03T21:09:55.271Z,6.73
2023-10-03T21:12:23.872Z,7.87
2023-10-03T21:14:51.157Z,8.67
2023-10-03T21:17:17.872Z,5.07
2023-10-03T21:19:44.646Z,5.90
2023-10-03T21:22:11.255Z,5.43
2023-10-03T21:24:37.871Z,8.67
2023-10-03T21:27:04.583Z,5.90
2023-10-03T21:29:33.378Z,6.33
2023-10-03T21:32:00.061Z,5.17
2023-10-03T21:34:27.259Z,7.03
2023-10-03T21:36:55.458Z,5.67
2023-10-03T21:39:23.228Z,8.87
2023-10-03T21:41:50.148Z,4.40
2023-10-03T21:44:17.098Z,4.30
2023-10-03T21:46:44.219Z,5.23
2023-10-03T21:49:10.927Z,7.70
2023-10-03T21:51:38.636Z,5.47
2023-10-03T21:54:05.653Z,5.13
2023-10-03T21:56:32.349Z,5.57
2023-10-03T21:58:59.175Z,5.10
2023-10-03T22:01:27.790Z,8.97
2023-10-03T22:03:55.527Z,5.03
2023-10-03T22:06:22.346Z,8.67
2023-10-03T22:08:49.008Z,4.60
2023-10-03T22:11:19.114Z,5.57
2023-10-03T22:13:45.881Z,6.17
2023-10-03T22:16:12.726Z,6.77
2023-10-03T22:18:39.465Z,6.03
2023-10-03T22:21:06.302Z,4.53
2023-10-03T22:23:32.934Z,5.87
2023-10-03T22:25:59.545Z,5.47
2023-10-03T22:28:26.266Z,6.60
2023-10-03T22:30:52.894Z,4.90
2023-10-03T22:33:19.670Z,4.90
2023-10-03T22:35:46.393Z,6.43
2023-10-03T22:38:15.021Z,6.43
2023-10-03T22:40:42.935Z,6.13
2023-10-03T22:43:09.652Z,7.33
2023-10-03T22:45:36.453Z,5.87
2023-10-03T22:48:03.683Z,8.37
2023-10-03T22:50:30.664Z,4.57
2023-10-03T22:52:57.580Z,5.93
2023-10-03T22:55:24.214Z,6.40
2023-10-03T22:57:50.917Z,7.03
2023-10-03T23:00:17.929Z,5.27
2023-10-03T23:02:44.838Z,7.37
2023-10-03T23:05:11.612Z,5.90
2023-10-03T23:07:40.847Z,6.83
2023-10-03T23:10:10.934Z,8.30
2023-10-03T23:12:40.428Z,7.53
2023-10-03T23:15:11.244Z,5.90
2023-10-03T23:17:38.925Z,5.97
2023-10-03T23:20:08.976Z,6.40
2023-10-03T23:22:35.861Z,6.53
2023-10-03T23:25:02.640Z,6.20
2023-10-03T23:27:29.366Z,7.87
2023-10-03T23:29:57.581Z,4.87
2023-10-03T23:32:25.290Z,6.20
2023-10-03T23:34:55.280Z,6.30
2023-10-03T23:37:21.960Z,5.13
2023-10-03T23:39:52.721Z,6.87
2023-10-03T23:42:19.787Z,11.67
2023-10-03T23:44:48.585Z,5.00
2023-10-03T23:47:15.388Z,5.30
2023-10-03T23:49:44.363Z,8.07
2023-10-03T23:52:14.985Z,9.67
2023-10-03T23:54:41.776Z,5.40
2023-10-03T23:57:13.401Z,4.13
2023-10-03T23:59:41.061Z,5.93
